Aérodrome :
LOGIN :

S'inscrire | Disclaimer

   EN    FR    IT 

 










Légende :    VFR   VFR Marginal   IFR   IFR Intensif   IFR Très Intensif
Visi : 
Plafond : 
>= 8 km
>= 3000ft
5 à 8 km
1000 à 3000 ft
1500m à 5 km
500 à 1000 ft
800 à 1500m
200 à 500 ft
< 800m
< 200 ft
Symboles :   Orages  Brouillard  Fortes neiges  Fortes précipitations  Vent > 20 kt
SIGMETs :   Divers  Orages  Givrage  Turbulence  Onde Orograph.  Cendres Volcan.







- Altitude de l'aérodrome : 218 ft


EGYD - RAF Cranwell

DERNIER METAR :
  • 230650Z 28017KT 9999 FEW017 BKN019 07/05 Q0987 WHT BECMF FEW019 BLU

METARs EXPIRÉS :
  • 230550Z AUTO 25024G45KT 6000 // FEW010/// BKN019/// 09/07 Q0985
  • 230450Z AUTO 21021KT 9999 // BKN017/// SCT100/// 12/09 Q0982

TAF TAF EGYD
Valide du 23 à 06h jusqu'au 23 à 15h UTC


230622Z 2306/2315 28020G30KT 9999 SCT025
PROB30
TEMPO 2306/2308 7000 SHRA BKN018
BECMG 2308/2310 23025G36KT
TEMPO 2312/2315 24032G46KT
Pas de NOTAMs connus pour ce terrain.
1 SIGMET publié pour la FIR London (EGTT) :
 
Turbulence forte
EGTT SIGMET 02 VALID 230600/231000 EGRR
EGTT LONDON FIR SEV TURB FCST E OF LINE N5000 W00015 - N5500 E00258 SFC/FL060 MOV E 20KT WKN=



MET'MAP, la Météo Aéronautique d'un coup d'oeil ! - Copyright ORBIFLY Décembre 2007 - Disclaimer

ORBIFLY MET'MAP TEAM :

Programmation & Développement : Alexandra Zaïnal
Conception & Développement : Baudouin d'Aumeries
Co-Programmation & Développement : Marc-Olivier Méhu
Soutien technique & logistique : Manuel Goepfert

Contact : metmap@orbifly.com




SOURCES & CREDITS :

   NOAA